Data for 11/20/2008

Time Sea-Level Adjusted Pressure Absolute Pressure Temperature Relative Humidity Dew Point   
(mb) (inHg) (mb) (inHg) (C) (F) (%) (C) (F)
00:05 1033 30.5 862 25.45 -1.9 28.7 84 -4.2 24.4
00:10 1033 30.5 862 25.45 -1.8 28.7 85 -4.1 24.7
00:15 1033 30.5 862 25.45 -1.9 28.6 85 -4.1 24.6
00:20 1033 30.5 862 25.45 -1.9 28.5 84 -4.2 24.4
00:25 1033 30.5 862 25.45 -1.9 28.5 84 -4.3 24.2
00:30 1033 30.5 862 25.45 -2 28.4 83 -4.5 24
00:35 1033 30.5 862 25.45 -2 28.4 83 -4.5 23.9
00:40 1033 30.5 862 25.45 -2.1 28.2 84 -4.5 24
00:45 1033 30.5 862 25.45 -2.2 28.1 85 -4.4 24
00:50 1033 30.5 862 25.45 -2.2 28 85 -4.5 24
00:55 1033 30.5 862 25.45 -2.2 28 85 -4.5 23.9
01:00 1033 30.5 862 25.45 -2.3 27.9 84 -4.6 23.8
01:05 1033 30.5 862 25.45 -2.3 27.8 84 -4.6 23.6
01:10 1033 30.5 862 25.45 -2.4 27.7 84 -4.7 23.5
01:15 1033 30.5 862 25.45 -2.4 27.7 83 -4.8 23.4
01:20 1033 30.5 862 25.45 -2.3 27.8 81 -5.1 22.8
01:25 1032 30.47 862 25.45 -2.3 27.9 80 -5.2 22.6
01:30 1032 30.47 862 25.45 -2.2 28 79 -5.3 22.4
01:35 1032 30.47 862 25.45 -2.2 28 80 -5.2 22.6
01:40 1032 30.47 862 25.45 -2.3 27.9 79 -5.4 22.4
01:45 1032 30.47 862 25.45 -2.3 27.9 79 -5.5 22.1
01:50 1032 30.47 861 25.43 -2.2 28 79 -5.5 22.2
01:55 1032 30.47 861 25.43 -2.3 27.9 79 -5.4 22.3
02:00 1032 30.47 861 25.43 -2.4 27.7 80 -5.4 22.3
02:05 1032 30.47 861 25.43 -2.4 27.7 80 -5.4 22.2
02:10 1032 30.47 861 25.43 -2.4 27.7 80 -5.4 22.3
02:15 1032 30.47 862 25.45 -2.4 27.7 80 -5.5 22.2
02:20 1032 30.47 861 25.43 -2.5 27.6 80 -5.4 22.2
02:25 1032 30.47 861 25.43 -2.5 27.5 79 -5.6 22
02:30 1032 30.47 861 25.43 -2.4 27.6 80 -5.5 22.1
02:35 1032 30.47 861 25.43 -2.5 27.6 80 -5.4 22.2
02:40 1032 30.47 861 25.43 -2.5 27.5 80 -5.5 22.1
02:45 1032 30.47 861 25.43 -2.5 27.4 80 -5.5 22.1
02:50 1032 30.47 861 25.43 -2.6 27.4 80 -5.5 22.1
02:55 1032 30.47 861 25.43 -2.6 27.4 81 -5.4 22.3
03:00 1032 30.47 861 25.43 -2.7 27.2 82 -5.3 22.5
03:05 1032 30.47 861 25.43 -2.7 27.1 83 -5.3 22.5
03:10 1032 30.47 861 25.43 -2.8 27 82 -5.4 22.3
03:15 1032 30.47 861 25.43 -2.8 27 82 -5.4 22.3
03:20 1032 30.47 861 25.43 -2.8 26.9 82 -5.5 22.1
03:25 1031 30.45 861 25.43 -2.9 26.8 82 -5.5 22
03:30 1031 30.45 861 25.43 -2.9 26.7 83 -5.5 22.1
03:35 1031 30.45 860 25.4 -3 26.5 83 -5.6 21.9
03:40 1031 30.45 860 25.4 -3.1 26.4 83 -5.6 21.9
03:45 1031 30.45 860 25.4 -3.1 26.4 82 -5.7 21.7
03:50 1031 30.45 860 25.4 -3.2 26.3 83 -5.7 21.8
03:55 1031 30.45 860 25.4 -3.2 26.2 84 -5.5 22
04:00 1031 30.45 860 25.4 -3.3 26 84 -5.7 21.8
04:05 1031 30.45 860 25.4 -3.4 26 85 -5.5 22.1
04:10 1031 30.45 860 25.4 -3.4 25.8 85 -5.7 21.8
04:15 1031 30.45 860 25.4 -3.5 25.7 87 -5.4 22.3
04:20 1031 30.45 860 25.4 -3.6 25.5 87 -5.4 22.2
04:25 1031 30.45 860 25.4 -3.6 25.5 87 -5.4 22.2
04:30 1031 30.45 860 25.4 -3.7 25.4 87 -5.5 22.1
04:35 1031 30.45 860 25.4 -3.6 25.4 87 -5.5 22.1
04:40 1031 30.45 860 25.4 -3.7 25.3 87 -5.5 22.1
04:45 1031 30.45 860 25.4 -3.7 25.3 88 -5.5 22.1
04:50 1031 30.45 860 25.4 -3.7 25.3 87 -5.5 22
04:55 1031 30.45 860 25.4 -3.7 25.3 87 -5.5 22
05:00 1031 30.45 860 25.4 -3.7 25.3 88 -5.5 22.1
05:05 1031 30.45 860 25.4 -3.8 25.2 88 -5.5 22.1
05:10 1031 30.45 860 25.4 -3.8 25.1 88 -5.5 22.1
05:15 1031 30.45 860 25.4 -3.9 25 88 -5.6 22
05:20 1031 30.45 860 25.4 -3.9 25 89 -5.5 22
05:25 1031 30.45 860 25.4 -3.9 24.9 88 -5.6 21.9
05:30 1031 30.45 860 25.4 -3.9 25 87 -5.7 21.7
05:35 1031 30.45 860 25.4 -3.8 25.1 87 -5.7 21.8
05:40 1031 30.45 860 25.4 -3.8 25.1 86 -5.8 21.5
05:45 1031 30.45 860 25.4 -3.8 25.2 86 -5.8 21.6
05:50 1031 30.45 860 25.4 -3.8 25.1 86 -5.8 21.6
05:55 1031 30.45 860 25.4 -3.9 24.9 87 -5.9 21.5
06:00 1031 30.45 860 25.4 -3.9 24.9 86 -5.9 21.4
06:05 1031 30.45 860 25.4 -3.9 24.9 84 -6.2 20.9
06:10 1031 30.45 860 25.4 -3.9 25 84 -6.2 20.8
06:15 1031 30.45 860 25.4 -3.9 25 83 -6.3 20.6
06:20 1031 30.45 860 25.4 -3.9 25 83 -6.4 20.4
06:25 1031 30.45 860 25.4 -3.8 25.1 81 -6.7 20
06:30 1031 30.45 860 25.4 -3.8 25.1 80 -6.8 19.7
06:35 1031 30.45 860 25.4 -3.8 25.2 79 -6.9 19.5
06:40 1031 30.45 860 25.4 -3.8 25.1 78 -7 19.3
06:45 1030 30.42 860 25.4 -3.9 25 78 -7.1 19.2
06:50 1030 30.42 860 25.4 -4 24.8 80 -7 19.4
06:55 1030 30.42 860 25.4 -4.1 24.6 79 -7.1 19.1
07:00 1030 30.42 860 25.4 -4.1 24.6 79 -7.2 19.1
07:05 1030 30.42 860 25.4 -4.2 24.5 79 -7.3 18.9
07:10 1030 30.42 859 25.37 -4.3 24.3 80 -7.3 18.9
07:15 1030 30.42 859 25.37 -4.3 24.2 80 -7.3 18.8
07:20 1030 30.42 859 25.37 -4.4 24.1 80 -7.4 18.6
07:25 1030 30.42 859 25.37 -4.4 24 80 -7.4 18.6
07:30 1030 30.42 859 25.37 -4.5 23.9 80 -7.5 18.5
07:35 1030 30.42 859 25.37 -4.6 23.8 79 -7.7 18.2
07:40 1030 30.42 859 25.37 -4.6 23.7 79 -7.7 18.2
07:45 1030 30.42 859 25.37 -4.7 23.6 79 -7.7 18.1
07:50 1030 30.42 859 25.37 -4.7 23.6 79 -7.7 18.1
07:55 1030 30.42 859 25.37 -4.7 23.5 79 -7.8 17.9
08:00 1030 30.42 859 25.37 -4.7 23.5 79 -7.8 18
08:05 1030 30.42 859 25.37 -4.8 23.4 80 -7.8 18
08:10 1030 30.42 859 25.37 -4.8 23.4 80 -7.8 18
08:15 1030 30.42 859 25.37 -4.8 23.3 80 -7.8 17.9
08:20 1029 30.39 859 25.37 -4.9 23.2 80 -7.9 17.8
08:25 1029 30.39 858 25.34 -4.9 23.2 80 -7.9 17.8
08:30 1029 30.39 858 25.34 -4.9 23.1 80 -7.9 17.7
08:35 1029 30.39 858 25.34 -4.9 23.1 79 -8.1 17.4
08:40 1029 30.39 858 25.34 -4.9 23.2 79 -8 17.6
08:45 1029 30.39 858 25.34 -5 23.1 79 -8.1 17.4
08:50 1029 30.39 858 25.34 -5 23 79 -8.1 17.4
08:55 1029 30.39 858 25.34 -5 23 79 -8.1 17.5
09:00 1029 30.39 858 25.34 -5 23.1 79 -8.1 17.4
09:05 1029 30.39 858 25.34 -5 23.1 78 -8.2 17.2
09:10 1029 30.39 858 25.34 -5 23.1 78 -8.3 17.1
09:15 1029 30.39 858 25.34 -5 23.1 77 -8.3 17
09:20 1028 30.36 858 25.34 -4.9 23.1 77 -8.4 16.9
09:25 1028 30.36 858 25.34 -4.9 23.2 77 -8.4 16.9
09:30 1028 30.36 857 25.31 -4.8 23.3 76 -8.4 16.8
09:35 1028 30.36 857 25.31 -4.8 23.4 75 -8.5 16.7
09:40 1028 30.36 857 25.31 -4.7 23.5 75 -8.5 16.8
09:45 1028 30.36 857 25.31 -4.5 23.8 75 -8.4 16.9
09:50 1028 30.36 857 25.31 -4.6 23.7 75 -8.4 16.9
09:55 1028 30.36 857 25.31 -4.6 23.7 75 -8.3 17
10:00 1028 30.36 857 25.31 -4.6 23.8 75 -8.4 16.9
10:05 1028 30.36 858 25.34 -4.6 23.8 75 -8.4 16.9
10:10 1028 30.36 858 25.34 -4.5 23.8 74 -8.5 16.7
10:15 1028 30.36 857 25.31 -4.4 24.1 73 -8.4 16.8
10:20 1028 30.36 857 25.31 -4.4 24 74 -8.4 16.8
10:25 1028 30.36 857 25.31 -4.3 24.2 74 -8.3 17.1
10:30 1028 30.36 857 25.31 -4.3 24.2 74 -8.4 17
10:35 1028 30.36 857 25.31 -4.4 24.1 75 -8.3 17.1
10:40 1028 30.36 857 25.31 -4.5 23.9 75 -8.3 17.1
10:45 1028 30.36 857 25.31 -4.6 23.7 76 -8.2 17.2
10:50 1028 30.36 857 25.31 -4.7 23.6 76 -8.2 17.3
10:55 1028 30.36 857 25.31 -4.9 23.3 78 -8.1 17.4
11:00 1028 30.36 857 25.31 -4.9 23.2 78 -8.2 17.3
11:05 1028 30.36 857 25.31 -4.8 23.3 78 -8.1 17.4
11:10 1027 30.33 856 25.28 -4.8 23.4 77 -8.2 17.2
11:15 1027 30.33 856 25.28 -4.8 23.4 78 -8.1 17.4
11:20 1027 30.33 856 25.28 -4.9 23.2 79 -8 17.6
11:25 1027 30.33 856 25.28 -4.9 23.1 79 -8.1 17.4
11:30 1027 30.33 856 25.28 -4.9 23.1 79 -8.1 17.4
11:35 1026 30.3 856 25.28 -4.7 23.5 77 -8.1 17.4
11:40 1026 30.3 855 25.25 -4.7 23.5 77 -8.1 17.4
11:45 1026 30.3 855 25.25 -4.6 23.7 77 -8.1 17.4
11:50 1026 30.3 855 25.25 -4.5 23.8 76 -8.1 17.4
11:55 1026 30.3 855 25.25 -4.5 23.9 77 -8 17.6
12:00 1026 30.3 855 25.25 -4.6 23.6 77 -8.1 17.5
12:05 1025 30.27 855 25.25 -4.7 23.5 78 -8 17.5
12:10 1025 30.27 855 25.25 -4.8 23.4 77 -8.2 17.3
12:15 1025 30.27 855 25.25 -4.8 23.4 77 -8.2 17.3
12:20 1025 30.27 854 25.22 -4.8 23.4 77 -8.2 17.3
12:25 1025 30.27 854 25.22 -4.7 23.6 77 -8.1 17.4
12:30 1025 30.27 854 25.22 -4.5 23.8 76 -8.1 17.5
12:35 1025 30.27 854 25.22 -4.5 24 77 -8 17.7
12:40 1025 30.27 854 25.22 -4.4 24.1 76 -8 17.6
12:45 1025 30.27 854 25.22 -4.4 24.1 75 -8.1 17.4
12:50 1025 30.27 854 25.22 -4 24.7 73 -8.2 17.2
12:55 1025 30.27 854 25.22 -3.8 25.2 72 -8.1 17.5
13:00 1024 30.24 854 25.22 -3.7 25.3 73 -7.9 17.7
13:05 1024 30.24 854 25.22 -3.7 25.3 72 -8 17.6
13:10 1024 30.24 854 25.22 -3.8 25.2 72 -8.2 17.2
13:15 1024 30.24 853 25.19 -3.6 25.5 71 -8.2 17.2
13:20 1024 30.24 853 25.19 -3.4 25.9 70 -8.2 17.3
13:25 1024 30.24 853 25.19 -3.6 25.6 70 -8.2 17.2
13:30 1023 30.21 853 25.19 -3.5 25.7 70 -8.2 17.2
13:35 1023 30.21 852 25.16 -3.5 25.7 70 -8.3 17.1
13:40 1023 30.21 852 25.16 -3.5 25.8 69 -8.4 16.9
13:45 1023 30.21 852 25.16 -3.5 25.8 69 -8.4 17
13:50 1023 30.21 852 25.16 -3.5 25.7 70 -8.2 17.2
13:55 1022 30.18 852 25.16 -3.7 25.3 70 -8.4 16.9
14:00 1022 30.18 851 25.13 -3.5 25.7 69 -8.4 16.9
14:05 1022 30.18 851 25.13 -3.5 25.7 70 -8.3 17.1
14:10 1022 30.18 851 25.13 -3.6 25.5 70 -8.2 17.2
14:15 1022 30.18 851 25.13 -3.6 25.5 70 -8.3 17.1
14:20 1022 30.18 851 25.13 -3.8 25.2 71 -8.3 17
14:25 1022 30.18 851 25.13 -3.6 25.5 70 -8.3 17
14:30 1022 30.18 851 25.13 -3.8 25.1 71 -8.4 16.9
14:35 1021 30.15 851 25.13 -3.7 25.3 71 -8.2 17.2
14:40 1021 30.15 851 25.13 -3.7 25.3 70 -8.4 16.9
14:45 1021 30.15 850 25.1 -3.6 25.5 70 -8.3 17.1
14:50 1021 30.15 850 25.1 -3.5 25.7 69 -8.4 16.9
14:55 1021 30.15 850 25.1 -3.4 25.8 69 -8.2 17.2
15:00 1021 30.15 850 25.1 -3.7 25.4 70 -8.3 17
15:05 1021 30.15 850 25.1 -3.8 25.1 72 -8.2 17.2
15:10 1021 30.15 850 25.1 -3.9 25 71 -8.4 16.9
15:15 1021 30.15 850 25.1 -3.9 25 72 -8.2 17.2
15:20 1020 30.12 850 25.1 -3.9 25 72 -8.3 17.1
15:25 1020 30.12 850 25.1 -3.8 25.1 72 -8.2 17.2
15:30 1020 30.12 849 25.07 -3.8 25.1 72 -8.2 17.2
15:35 1020 30.12 849 25.07 -3.7 25.4 70 -8.3 17
15:40 1020 30.12 849 25.07 -3.6 25.6 71 -8.1 17.4
15:45 1020 30.12 849 25.07 -3.7 25.4 72 -8.1 17.5
15:50 1020 30.12 849 25.07 -3.8 25.2 72 -8.2 17.3
15:55 1020 30.12 849 25.07 -3.8 25.2 72 -8.1 17.4
16:00 1020 30.12 849 25.07 -3.8 25.2 72 -8.1 17.4
16:05 1020 30.12 849 25.07 -3.9 25 73 -8.1 17.4
16:10 1020 30.12 849 25.07 -3.9 25.1 73 -8 17.6
16:15 1020 30.12 849 25.07 -3.9 25 73 -8 17.6
16:20 1020 30.12 849 25.07 -3.9 25 74 -7.9 17.7
16:25 1020 30.12 849 25.07 -3.9 25 75 -7.8 18
16:30 1020 30.12 849 25.07 -3.9 24.9 75 -7.8 17.9
16:35 1020 30.12 849 25.07 -3.9 25 74 -7.8 17.9
16:40 1020 30.12 849 25.07 -3.8 25.1 74 -7.8 18
16:45 1019 30.09 849 25.07 -3.9 24.9 76 -7.6 18.3
16:50 1019 30.09 848 25.04 -4.1 24.7 76 -7.7 18.2
16:55 1019 30.09 848 25.04 -4 24.9 76 -7.7 18.2
17:00 1019 30.09 848 25.04 -4.1 24.6 77 -7.5 18.4
17:05 1019 30.09 848 25.04 -4.2 24.4 77 -7.6 18.3
17:10 1019 30.09 848 25.04 -4.2 24.5 77 -7.6 18.3
17:15 1019 30.09 848 25.04 -4.2 24.4 77 -7.6 18.3
17:20 1018 30.06 848 25.04 -4.1 24.6 77 -7.6 18.3
17:25 1018 30.06 847 25.01 -4 24.8 77 -7.5 18.5
17:30 1018 30.06 847 25.01 -4 24.8 77 -7.5 18.6
17:35 1018 30.06 847 25.01 -3.9 24.9 77 -7.4 18.6
17:40 1018 30.06 847 25.01 -4 24.8 78 -7.3 18.8
17:45 1017 30.03 847 25.01 -3.9 25 77 -7.4 18.7
17:50 1017 30.03 847 25.01 -3.8 25.2 77 -7.2 19
17:55 1017 30.03 846 24.98 -3.8 25.2 76 -7.4 18.7
18:00 1017 30.03 846 24.98 -3.7 25.3 76 -7.3 18.9
18:05 1017 30.03 846 24.98 -3.7 25.4 76 -7.3 18.9
18:10 1017 30.03 846 24.98 -3.6 25.5 76 -7.2 19
18:15 1017 30.03 846 24.98 -3.5 25.7 76 -7.2 19.1
18:20 1017 30.03 846 24.98 -3.5 25.7 76 -7.2 19.1
18:25 1016 30 846 24.98 -3.4 25.9 76 -7 19.4
18:30 1016 30 846 24.98 -3.3 26.1 75 -7.1 19.1
18:35 1016 30 846 24.98 -3.1 26.4 74 -7 19.4
18:40 1016 30 846 24.98 -3 26.5 74 -7.1 19.3
18:45 1016 30 845 24.95 -3.1 26.5 74 -7.1 19.2
18:50 1016 30 846 24.98 -3 26.6 73 -7.1 19.2
18:55 1017 30.03 846 24.98 -3.1 26.4 73 -7.3 18.9
19:00 1017 30.03 846 24.98 -3 26.7 72 -7.3 18.8
19:05 1016 30 846 24.98 -2.6 27.3 71 -7.2 19
19:10 1016 30 845 24.95 -2.6 27.2 71 -7.2 19.1
19:15 1016 30 845 24.95 -2.8 26.9 73 -7.1 19.2
19:20 1016 30 845 24.95 -3 26.6 73 -7.2 19.1
19:25 1016 30 845 24.95 -2.9 26.7 73 -7.1 19.2
19:30 1016 30 845 24.95 -2.8 26.9 73 -7 19.4
19:35 1016 30 845 24.95 -2.6 27.3 72 -7 19.5
19:40 1016 30 845 24.95 -2.5 27.5 72 -6.9 19.6
19:45 1016 30 845 24.95 -2.3 27.9 72 -6.7 19.9
19:50 1015 29.97 845 24.95 -2.2 28.1 71 -6.7 19.9
19:55 1015 29.97 845 24.95 -2 28.5 70 -6.7 20
20:00 1015 29.97 844 24.92 -1.9 28.7 70 -6.6 20.2
20:05 1015 29.97 844 24.92 -1.8 28.7 70 -6.5 20.2
20:10 1015 29.97 844 24.92 -1.7 28.9 70 -6.5 20.3
20:15 1015 29.97 844 24.92 -1.7 29 70 -6.5 20.4
20:20 1015 29.97 844 24.92 -1.6 29.1 69 -6.6 20.2
20:25 1014 29.94 844 24.92 -1.3 29.6 69 -6.4 20.5
20:30 1014 29.94 844 24.92 -1.2 29.9 68 -6.4 20.5
20:35 1014 29.94 844 24.92 -0.9 30.3 67 -6.3 20.7
20:40 1014 29.94 843 24.89 -0.8 30.6 67 -6.2 20.8
20:45 1014 29.94 843 24.89 -0.6 31 65 -6.3 20.7
20:50 1014 29.94 843 24.89 -0.2 31.7 63 -6.3 20.6
20:55 1014 29.94 843 24.89 0.4 32.7 62 -6.1 21
21:00 1014 29.94 843 24.89 0.5 33 61 -6 21.1
21:05 1014 29.94 843 24.89 0.3 32.5 64 -5.8 21.5
21:10 1014 29.94 844 24.92 -1.1 30 68 -6.2 20.8
21:15 1014 29.94 844 24.92 -1.8 28.7 71 -6.4 20.5
21:20 1014 29.94 843 24.89 -2.3 27.8 74 -6.4 20.5
21:25 1014 29.94 844 24.92 -2.5 27.5 73 -6.6 20.1
21:30 1014 29.94 844 24.92 -2.5 27.6 74 -6.5 20.3
21:35 1014 29.94 844 24.92 -2.5 27.5 74 -6.6 20.1
21:40 1015 29.97 844 24.92 -2.5 27.6 74 -6.5 20.3
21:45 1014 29.94 844 24.92 -2.4 27.7 73 -6.5 20.2
21:50 1014 29.94 844 24.92 -2.3 27.8 73 -6.5 20.3
21:55 1014 29.94 844 24.92 -2.4 27.7 74 -6.4 20.4
22:00 1014 29.94 844 24.92 -2.6 27.4 74 -6.5 20.3
22:05 1014 29.94 844 24.92 -2.5 27.4 74 -6.5 20.3
22:10 1014 29.94 843 24.89 -2.4 27.6 74 -6.5 20.4
22:15 1014 29.94 843 24.89 -2.4 27.7 73 -6.5 20.3
22:20 1014 29.94 843 24.89 -2.3 27.9 73 -6.4 20.5
22:25 1014 29.94 843 24.89 -2.2 28 73 -6.4 20.5
22:30 1014 29.94 843 24.89 -2.4 27.7 74 -6.4 20.4
22:35 1014 29.94 843 24.89 -2.4 27.6 75 -6.3 20.6
22:40 1014 29.94 843 24.89 -2.4 27.6 75 -6.2 20.8
22:45 1014 29.94 843 24.89 -2.6 27.4 77 -6.1 21
22:50 1014 29.94 843 24.89 -2.7 27.2 77 -6.1 21
22:55 1014 29.94 843 24.89 -2.7 27.1 77 -6.2 20.9
23:00 1014 29.94 843 24.89 -2.7 27.2 78 -6.1 21.1
23:05 1015 29.97 844 24.92 -2.6 27.3 78 -6 21.2
23:10 1016 30 845 24.95 -2.8 27 80 -5.7 21.8
23:15 1016 30 845 24.95 -3 26.6 81 -5.9 21.4
23:20 1016 30 845 24.95 -3 26.6 80 -6 21.2
23:25 1017 30.03 846 24.98 -2.8 27 78 -6.2 20.9
23:30 1017 30.03 846 24.98 -2.6 27.4 81 -5.3 22.4
23:35 1018 30.06 847 25.01 -2.7 27.2 87 -4.5 23.8
23:40 1018 30.06 847 25.01 -3 26.6 91 -4.3 24.3
23:45 1018 30.06 847 25.01 -3.2 26.3 93 -4.1 24.6
23:50 1018 30.06 847 25.01 -3.2 26.2 93 -4.2 24.4
23:55 1018 30.06 847 25.01 -3.3 26.1 93 -4.3 24.3
24:00 1018 30.06 847 25.01 -3.4 25.9 94 -4.2 24.4